Terminal Aerodrome Forecast
Issued by NWS Wilmington, NC

Home | Current Version | Previous Version | Text Only | Print | Product List | Glossary On
Versions: 1 2 3 4 5 6 7 8 9 10 11 12 13 14 15 16 17 18 19 20 21 22 23 24
000
FTUS42 KILM 190543 CCA
TAFMYR
TAF COR
KMYR 190543Z 1906/2006 05004KT P6SM VCSH SCT020 SCT040 BKN100
      TEMPO 1906/1910 BKN020
     FM191300 13011KT P6SM -SHRA BKN015
      TEMPO 1917/1919 2SM +SHRA BKN012
     FM191900 16011G20KT 5SM -RA BR SCT007 OVC015
     FM200000 19015G22KT P6SM VCSH BKN007
      AMD LTD TO CLD VIS AND WIND TIL 191100=

USA.gov is the U.S. government's official web portal to all federal, state and local government web resources and services.